Time;durP1;ratioP1;P1;durP2;ratioP2;P2;SDS_P1;SDS_P2;PMS_P1;PMS_P2;Temp;Humidity;BMP_temperature;BMP_pressure;BME280_temperature;BME280_humidity;BME280_pressure;Samples;Min_cycle;Max_cycle;Signal;HPM_P1;HPM_P2
2021/04/13 00:01:11;;;;;;;9.65;5.78;;;2.70;99.90;;;;;;5090818;28;20024;-46
2021/04/13 00:03:51;;;;;;;10.50;6.20;;;2.70;99.90;;;;;;5089743;28;20464;-47
2021/04/13 00:06:25;;;;;;;9.48;5.95;;;2.50;99.90;;;;;;5089831;28;20052;-46
2021/04/13 00:09:19;;;;;;;9.18;5.75;;;2.50;99.90;;;;;;5089974;28;20493;-45
2021/04/13 00:11:54;;;;;;;12.98;5.82;;;2.50;99.90;;;;;;5089638;28;20024;-45
2021/04/13 00:14:24;;;;;;;12.45;5.90;;;2.60;99.90;;;;;;5081781;28;20157;-46
2021/04/13 00:16:51;;;;;;;13.05;5.88;;;2.50;99.90;;;;;;5088823;28;20024;-46
2021/04/13 00:19:22;;;;;;;8.30;6.05;;;2.50;99.90;;;;;;5089134;28;20024;-45
2021/04/13 00:21:49;;;;;;;9.65;5.72;;;2.50;99.90;;;;;;5088569;28;20091;-45
2021/04/13 00:24:18;;;;;;;10.38;6.18;;;2.50;99.90;;;;;;5085557;28;20501;-46
2021/04/13 00:26:49;;;;;;;9.07;6.43;;;2.50;99.90;;;;;;5089333;28;20028;-45
2021/04/13 00:29:19;;;;;;;10.65;6.18;;;2.50;99.90;;;;;;5089169;28;20028;-46
2021/04/13 00:31:48;;;;;;;11.10;6.63;;;2.50;99.90;;;;;;5089264;28;20064;-47
2021/04/13 00:34:17;;;;;;;12.07;5.85;;;2.40;99.90;;;;;;5089817;28;20073;-45
2021/04/13 00:36:43;;;;;;;8.65;6.68;;;2.50;99.90;;;;;;5089854;28;20535;-45
2021/04/13 00:39:29;;;;;;;11.15;6.32;;;2.50;99.90;;;;;;5089715;28;20036;-45
2021/04/13 00:41:59;;;;;;;9.13;6.15;;;2.40;99.90;;;;;;5089279;28;20103;-45
2021/04/13 00:44:25;;;;;;;9.90;6.47;;;2.40;99.90;;;;;;5089367;28;20035;-46
2021/04/13 00:47:06;;;;;;;9.23;6.50;;;2.40;99.90;;;;;;5089268;28;20023;-46
2021/04/13 00:49:35;;;;;;;10.15;6.43;;;2.40;99.90;;;;;;5089069;28;20024;-45
2021/04/13 00:52:05;;;;;;;11.00;6.50;;;2.30;99.90;;;;;;5089128;28;20097;-45
2021/04/13 00:54:37;;;;;;;9.73;6.25;;;2.30;99.90;;;;;;5070348;28;20501;-45
2021/04/13 00:57:08;;;;;;;10.55;6.15;;;2.30;99.90;;;;;;5089282;28;20111;-45
2021/04/13 00:59:33;;;;;;;12.82;6.82;;;2.30;99.90;;;;;;5089197;28;20024;-45
2021/04/13 01:02:05;;;;;;;12.55;6.75;;;2.30;99.90;;;;;;5088630;28;20465;-45
2021/04/13 01:04:45;;;;;;;12.10;6.22;;;2.30;99.90;;;;;;5088848;28;20081;-45
2021/04/13 01:07:15;;;;;;;13.65;6.80;;;2.30;99.90;;;;;;5070068;28;20020;-46
2021/04/13 01:09:51;;;;;;;14.60;7.20;;;2.30;99.90;;;;;;5088993;28;20036;-46
2021/04/13 01:12:27;;;;;;;13.20;6.60;;;2.30;99.90;;;;;;5070582;28;20278;-46
2021/04/13 01:14:54;;;;;;;10.73;6.50;;;2.20;99.90;;;;;;5088551;28;20107;-46
2021/04/13 01:17:22;;;;;;;13.05;6.70;;;2.20;99.90;;;;;;5088231;28;20062;-46
2021/04/13 01:20:12;;;;;;;10.98;6.90;;;2.20;99.90;;;;;;5089074;28;20470;-45
2021/04/13 01:22:53;;;;;;;9.90;6.47;;;2.20;99.90;;;;;;5088661;28;20020;-45
2021/04/13 01:25:30;;;;;;;14.02;6.40;;;2.20;99.90;;;;;;5084754;28;20507;-45
2021/04/13 01:27:59;;;;;;;13.45;7.30;;;2.20;99.90;;;;;;5087388;28;20044;-46
2021/04/13 01:30:54;;;;;;;9.88;5.90;;;2.20;99.90;;;;;;5070748;28;20038;-45
2021/04/13 01:33:22;;;;;;;13.85;7.00;;;2.20;99.90;;;;;;5036473;28;20051;-45
2021/04/13 01:35:54;;;;;;;15.57;6.95;;;2.20;99.90;;;;;;5088706;28;20031;-44
2021/04/13 01:38:29;;;;;;;13.55;7.20;;;2.20;99.90;;;;;;5087907;28;20086;-45
2021/04/13 01:43:41;;;;;;;14.88;7.13;;;2.20;99.90;;;;;;5088678;28;20032;-46
2021/04/13 01:46:09;;;;;;;11.60;6.93;;;2.20;99.90;;;;;;5070252;28;20024;-45
2021/04/13 01:48:35;;;;;;;38.25;8.77;;;2.20;99.90;;;;;;5087065;28;20077;-45
2021/04/13 01:51:03;;;;;;;13.88;7.28;;;2.20;99.90;;;;;;5088440;28;20020;-46
2021/04/13 01:53:37;;;;;;;14.60;6.57;;;2.20;99.90;;;;;;5087958;28;20024;-46
2021/04/13 01:56:06;;;;;;;12.40;8.20;;;2.20;99.90;;;;;;5082478;28;20481;-45
2021/04/13 01:58:40;;;;;;;12.15;7.38;;;2.10;99.90;;;;;;5079376;28;20488;-45
2021/04/13 02:01:09;;;;;;;13.15;7.75;;;2.20;99.90;;;;;;5088475;28;20024;-45
2021/04/13 02:03:52;;;;;;;13.88;7.28;;;2.20;99.90;;;;;;5069980;28;20025;-46
2021/04/13 02:06:51;;;;;;;9.63;6.80;;;2.20;99.90;;;;;;5086078;28;20016;-46
2021/04/13 02:09:37;;;;;;;15.35;7.50;;;2.10;99.90;;;;;;5081891;28;20044;-45
2021/04/13 02:12:08;;;;;;;15.45;7.22;;;2.00;99.90;;;;;;5085583;28;20089;-45
2021/04/13 02:14:38;;;;;;;12.18;8.07;;;1.90;99.90;;;;;;5083158;28;20012;-45
2021/04/13 02:17:15;;;;;;;15.00;9.40;;;1.90;99.90;;;;;;5083209;28;20070;-45
2021/04/13 02:19:50;;;;;;;12.30;8.20;;;1.90;99.90;;;;;;5081342;28;20094;-45
2021/04/13 02:22:18;;;;;;;12.70;9.00;;;1.90;99.90;;;;;;5082110;28;20070;-45
2021/04/13 02:24:44;;;;;;;15.07;8.82;;;1.80;99.90;;;;;;5082794;28;20016;-45
2021/04/13 02:27:14;;;;;;;18.08;8.85;;;1.80;99.90;;;;;;5083459;28;20031;-46
2021/04/13 02:29:51;;;;;;;18.10;9.25;;;1.80;99.90;;;;;;5080088;28;20505;-46
2021/04/13 02:32:24;;;;;;;16.83;9.25;;;1.80;99.90;;;;;;5080481;28;20016;-45
2021/04/13 02:34:58;;;;;;;14.48;10.45;;;1.70;99.90;;;;;;5081673;28;20047;-46
2021/04/13 02:37:39;;;;;;;18.48;10.48;;;1.70;99.90;;;;;;5082343;28;20028;-46
2021/04/13 02:40:12;;;;;;;19.08;10.05;;;1.70;99.90;;;;;;5078860;28;20020;-45
2021/04/13 02:42:44;;;;;;;18.20;9.75;;;1.70;99.90;;;;;;5080094;28;20021;-47
2021/04/13 02:45:23;;;;;;;22.75;11.18;;;1.70;99.90;;;;;;5082492;28;20431;-45
2021/04/13 02:47:52;;;;;;;17.23;9.38;;;1.70;99.90;;;;;;5081271;28;20467;-46
2021/04/13 02:50:20;;;;;;;17.05;10.40;;;1.70;99.90;;;;;;5083735;28;20495;-45
2021/04/13 02:52:50;;;;;;;18.05;10.80;;;1.60;99.90;;;;;;5084246;28;20455;-45
2021/04/13 02:55:26;;;;;;;20.33;10.77;;;1.60;99.90;;;;;;5087263;28;20040;-45
2021/04/13 02:57:54;;;;;;;24.00;12.45;;;1.60;99.90;;;;;;5086280;28;20089;-46
2021/04/13 03:00:44;;;;;;;19.83;11.80;;;1.60;99.90;;;;;;5087250;28;20024;-45
2021/04/13 03:03:18;;;;;;;19.83;11.97;;;1.60;99.90;;;;;;5087338;28;20107;-47
2021/04/13 03:05:49;;;;;;;24.08;12.45;;;1.60;99.90;;;;;;5087378;28;20025;-44
2021/04/13 03:08:17;;;;;;;23.35;11.88;;;1.60;99.90;;;;;;5086434;28;20097;-45
2021/04/13 03:10:47;;;;;;;25.25;12.20;;;1.50;99.90;;;;;;5086964;28;20020;-44
2021/04/13 03:13:19;;;;;;;20.75;11.68;;;1.60;99.90;;;;;;5087243;28;20397;-45
2021/04/13 03:15:52;;;;;;;21.67;12.10;;;1.60;99.90;;;;;;5086820;28;20043;-45
2021/04/13 03:18:21;;;;;;;26.15;12.10;;;1.50;99.90;;;;;;5088225;28;20024;-45
2021/04/13 03:20:51;;;;;;;23.20;12.57;;;1.60;99.90;;;;;;5073267;28;20437;-45
2021/04/13 03:23:19;;;;;;;21.48;12.23;;;1.60;99.90;;;;;;5091307;28;20484;-45
2021/04/13 03:25:57;;;;;;;25.73;12.68;;;1.60;99.90;;;;;;5069061;28;20050;-44
2021/04/13 03:28:28;;;;;;;25.30;12.23;;;1.60;99.90;;;;;;5084787;28;20036;-47
2021/04/13 03:30:54;;;;;;;20.05;12.48;;;1.60;99.90;;;;;;5091235;28;20028;-45
2021/04/13 03:33:32;;;;;;;21.08;12.05;;;1.60;99.90;;;;;;5089804;28;20101;-45
2021/04/13 03:36:19;;;;;;;20.65;12.73;;;1.70;99.90;;;;;;5090888;28;20435;-45
2021/04/13 03:38:55;;;;;;;22.90;12.18;;;1.70;99.90;;;;;;5090442;28;20020;-45
2021/04/13 03:41:21;;;;;;;22.95;11.98;;;1.70;99.90;;;;;;5089512;28;20024;-45
2021/04/13 03:43:54;;;;;;;22.27;11.63;;;1.60;99.90;;;;;;5090952;28;20028;-45
2021/04/13 03:46:20;;;;;;;25.23;12.32;;;1.70;99.90;;;;;;5090152;28;20507;-45
2021/04/13 03:48:49;;;;;;;20.45;11.80;;;1.70;99.90;;;;;;5090202;28;20036;-45
2021/04/13 03:51:31;;;;;;;21.77;12.55;;;1.70;99.90;;;;;;5090879;28;20024;-46
2021/04/13 03:53:57;;;;;;;25.65;13.27;;;1.70;99.90;;;;;;5090500;28;20017;-46
2021/04/13 03:56:25;;;;;;;23.70;12.98;;;1.60;99.90;;;;;;5090086;28;20021;-44
2021/04/13 03:59:01;;;;;;;25.60;12.48;;;1.60;99.90;;;;;;5090521;28;20023;-47
2021/04/13 04:01:30;;;;;;;22.27;12.60;;;1.60;99.90;;;;;;5090074;28;20523;-46
2021/04/13 04:03:57;;;;;;;20.33;12.33;;;1.70;99.90;;;;;;5090349;28;20040;-46
2021/04/13 04:06:39;;;;;;;25.30;12.77;;;1.70;99.90;;;;;;5071582;28;20059;-46
2021/04/13 04:09:35;;;;;;;22.45;13.38;;;1.70;99.90;;;;;;5090045;28;20048;-46
2021/04/13 04:12:14;;;;;;;25.00;13.43;;;1.80;99.90;;;;;;5068373;28;20028;-45
2021/04/13 04:14:40;;;;;;;20.83;11.27;;;1.90;99.90;;;;;;5083402;28;20441;-45
2021/04/13 04:17:13;;;;;;;20.17;12.27;;;1.90;99.90;;;;;;5090308;28;20059;-45
2021/04/13 04:19:39;;;;;;;21.48;11.50;;;2.00;99.90;;;;;;5089439;28;20028;-45
2021/04/13 04:22:10;;;;;;;18.33;11.13;;;2.00;99.90;;;;;;5090344;28;20042;-46
2021/04/13 04:24:38;;;;;;;21.70;12.40;;;2.00;99.90;;;;;;5089947;28;20513;-44
2021/04/13 04:27:13;;;;;;;18.65;11.98;;;2.10;99.90;;;;;;5082433;28;20547;-45
2021/04/13 04:29:47;;;;;;;19.30;10.23;;;2.20;99.90;;;;;;5086086;28;20399;-45
2021/04/13 04:32:42;;;;;;;21.60;11.15;;;2.20;99.90;;;;;;5090263;28;20063;-45
2021/04/13 04:35:11;;;;;;;20.85;11.23;;;2.20;99.90;;;;;;5073084;28;20028;-45
2021/04/13 04:37:51;;;;;;;18.38;10.50;;;2.20;99.90;;;;;;5085519;28;20074;-44
2021/04/13 04:40:36;;;;;;;19.90;12.25;;;2.30;99.90;;;;;;5071248;28;20031;-46
2021/04/13 04:43:15;;;;;;;17.45;10.20;;;2.30;99.90;;;;;;5070332;28;20044;-46
2021/04/13 04:45:44;;;;;;;17.75;11.27;;;2.30;99.90;;;;;;5081771;28;20047;-45
2021/04/13 04:48:26;;;;;;;16.85;9.70;;;2.40;99.90;;;;;;5087873;28;20065;-44
2021/04/13 04:50:57;;;;;;;19.15;11.27;;;2.40;99.90;;;;;;5071749;28;20027;-45
2021/04/13 04:53:25;;;;;;;17.70;9.93;;;2.40;99.90;;;;;;5089458;28;20105;-46
2021/04/13 04:55:53;;;;;;;21.00;11.52;;;2.50;99.90;;;;;;5089603;28;20020;-47
2021/04/13 04:58:19;;;;;;;17.30;9.98;;;2.50;99.90;;;;;;5087248;28;20036;-45
2021/04/13 05:00:47;;;;;;;16.20;10.30;;;2.50;99.90;;;;;;5091194;28;20066;-45
2021/04/13 05:03:12;;;;;;;17.05;10.15;;;2.50;99.90;;;;;;5085256;28;20022;-46
2021/04/13 05:05:38;;;;;;;20.85;10.10;;;2.60;99.90;;;;;;5090707;28;20123;-45
2021/04/13 05:08:04;;;;;;;19.45;9.95;;;2.70;99.90;;;;;;5081073;28;20067;-46
2021/04/13 05:10:29;;;;;;;21.08;9.32;;;2.60;99.90;;;;;;5077991;28;20190;-45
2021/04/13 05:12:55;;;;;;;17.60;10.18;;;2.70;99.90;;;;;;5088169;28;20016;-46
2021/04/13 05:15:20;;;;;;;21.05;9.70;;;2.60;99.90;;;;;;5083233;28;20039;-46
2021/04/13 05:17:46;;;;;;;21.33;9.88;;;2.60;99.90;;;;;;5082050;28;20115;-46
2021/04/13 05:20:12;;;;;;;22.00;10.85;;;2.60;99.90;;;;;;5081451;28;20048;-45
2021/04/13 05:22:38;;;;;;;18.42;10.38;;;2.60;99.90;;;;;;5064529;28;20032;-46
2021/04/13 05:25:04;;;;;;;21.48;10.70;;;2.60;99.90;;;;;;5077950;28;20024;-47
2021/04/13 05:27:29;;;;;;;28.85;10.50;;;2.60;99.90;;;;;;5078019;28;20036;-48
2021/04/13 05:29:55;;;;;;;15.20;9.88;;;2.50;99.90;;;;;;5082870;28;20082;-47
2021/04/13 05:32:20;;;;;;;22.00;9.95;;;2.50;99.90;;;;;;5084122;28;20032;-47
2021/04/13 05:34:46;;;;;;;15.55;10.02;;;2.50;99.90;;;;;;5084457;28;20514;-47
2021/04/13 05:37:11;;;;;;;17.20;10.30;;;2.60;99.90;;;;;;5084839;28;20457;-50
2021/04/13 05:39:37;;;;;;;18.00;9.77;;;2.70;99.90;;;;;;5089533;28;20664;-47
2021/04/13 05:42:03;;;;;;;19.15;9.48;;;2.70;99.90;;;;;;5088475;28;20078;-47
2021/04/13 05:44:28;;;;;;;18.83;9.93;;;2.90;99.90;;;;;;5087271;28;20310;-47
2021/04/13 05:46:54;;;;;;;19.02;9.68;;;2.90;99.90;;;;;;5088534;28;20028;-47
2021/04/13 05:49:20;;;;;;;16.88;9.63;;;2.90;99.90;;;;;;5079744;28;20195;-47
2021/04/13 05:51:46;;;;;;;20.08;9.20;;;2.90;99.90;;;;;;5088628;28;20501;-45
2021/04/13 05:54:11;;;;;;;15.43;9.35;;;2.90;99.90;;;;;;5088036;28;20389;-48
2021/04/13 05:56:41;;;;;;;18.95;9.35;;;3.00;99.90;;;;;;5087956;28;20115;-47
2021/04/13 05:59:09;;;;;;;21.13;9.32;;;3.10;99.90;;;;;;5069829;28;20062;-47
2021/04/13 06:01:36;;;;;;;17.13;8.75;;;3.20;99.90;;;;;;5078935;28;20036;-48
2021/04/13 06:04:04;;;;;;;15.13;8.75;;;3.20;99.90;;;;;;5084968;28;20283;-47
2021/04/13 06:06:31;;;;;;;18.55;8.00;;;3.20;99.90;;;;;;5079942;28;20401;-47
2021/04/13 06:08:57;;;;;;;24.42;9.57;;;3.30;99.90;;;;;;5087972;28;20045;-47
2021/04/13 06:11:27;;;;;;;17.88;9.15;;;3.30;99.90;;;;;;5082000;28;20033;-49
2021/04/13 06:13:56;;;;;;;16.02;9.55;;;3.10;99.90;;;;;;5087709;28;20157;-48
2021/04/13 06:16:23;;;;;;;18.55;9.13;;;3.10;99.90;;;;;;5086305;28;20016;-48
2021/04/13 06:18:49;;;;;;;21.58;8.65;;;3.10;99.90;;;;;;5087408;28;20020;-48
2021/04/13 06:21:14;;;;;;;14.02;8.00;;;3.10;99.90;;;;;;5070540;28;20031;-47
2021/04/13 06:23:40;;;;;;;16.67;8.40;;;3.20;99.90;;;;;;5089229;28;20019;-45
2021/04/13 06:26:05;;;;;;;16.13;8.20;;;3.40;99.90;;;;;;5070303;28;20040;-45
2021/04/13 06:28:31;;;;;;;22.15;9.20;;;3.50;99.90;;;;;;5087957;28;20032;-46
2021/04/13 06:30:56;;;;;;;15.30;9.07;;;3.60;99.90;;;;;;5085266;28;20038;-48
2021/04/13 06:33:23;;;;;;;15.05;8.23;;;3.80;99.90;;;;;;5087531;28;20028;-46
2021/04/13 06:35:48;;;;;;;13.38;8.52;;;3.80;99.90;;;;;;5088673;28;20028;-45
2021/04/13 06:38:18;;;;;;;21.73;8.50;;;3.90;99.90;;;;;;5087690;28;20486;-49
2021/04/13 06:41:08;;;;;;;20.35;9.55;;;4.00;99.90;;;;;;5088616;28;20020;-47
2021/04/13 06:43:59;;;;;;;12.27;7.97;;;4.10;99.90;;;;;;5088034;28;20119;-49
2021/04/13 06:46:39;;;;;;;21.15;9.77;;;3.90;99.90;;;;;;5088218;28;20028;-47
2021/04/13 06:49:19;;;;;;;21.17;8.73;;;4.20;99.90;;;;;;5086386;28;20024;-46
2021/04/13 06:52:13;;;;;;;16.50;9.05;;;4.40;99.90;;;;;;5089817;28;20061;-47
2021/04/13 06:54:49;;;;;;;23.00;9.25;;;4.40;99.90;;;;;;5090257;28;20050;-50
2021/04/13 06:57:39;;;;;;;16.65;8.85;;;4.30;99.90;;;;;;5092579;28;20727;-48
2021/04/13 07:00:41;;;;;;;19.67;10.50;;;4.50;99.90;;;;;;5090853;28;20027;-50
2021/04/13 07:03:30;;;;;;;14.88;8.45;;;4.70;99.90;;;;;;5086128;28;20051;-48
2021/04/13 07:06:16;;;;;;;15.48;8.38;;;4.80;99.90;;;;;;5092625;28;20024;-50
2021/04/13 07:09:08;;;;;;;21.70;9.05;;;5.00;99.90;;;;;;5091398;28;20012;-49
2021/04/13 07:11:40;;;;;;;13.35;8.00;;;5.10;99.90;;;;;;5092092;28;20445;-48
2021/04/13 07:14:35;;;;;;;19.85;8.52;;;5.20;99.90;;;;;;5092336;28;20126;-50
2021/04/13 07:17:14;;;;;;;21.92;8.75;;;4.90;99.90;;;;;;5060005;28;20041;-46
2021/04/13 07:19:49;;;;;;;18.40;8.52;;;4.80;99.90;;;;;;5083857;28;20028;-50
2021/04/13 07:22:17;;;;;;;14.43;7.55;;;5.00;99.90;;;;;;5086939;28;20441;-49
2021/04/13 07:24:52;;;;;;;18.55;7.70;;;5.10;99.90;;;;;;5089124;28;20107;-47
2021/04/13 07:27:41;;;;;;;15.73;7.22;;;5.20;99.90;;;;;;5087851;28;20024;-50
2021/04/13 07:30:18;;;;;;;10.98;6.47;;;5.30;99.90;;;;;;5080264;28;20029;-49
2021/04/13 07:32:45;;;;;;;13.77;7.28;;;5.50;99.90;;;;;;5080298;28;20031;-48
2021/04/13 07:35:14;;;;;;;13.63;6.38;;;5.60;99.90;;;;;;5086601;28;20020;-48
2021/04/13 07:37:45;;;;;;;9.07;5.70;;;5.60;99.90;;;;;;5091937;28;20035;-51
2021/04/13 07:40:12;;;;;;;13.77;5.72;;;6.00;99.90;;;;;;5093249;28;20020;-48
2021/04/13 07:42:46;;;;;;;10.10;5.22;;;6.20;99.90;;;;;;5090320;28;20081;-50
2021/04/13 07:45:31;;;;;;;13.50;6.05;;;6.30;99.90;;;;;;5088332;28;20031;-49
2021/04/13 07:48:23;;;;;;;11.80;5.93;;;6.60;99.90;;;;;;5093005;28;20473;-49
2021/04/13 07:51:03;;;;;;;13.90;6.45;;;6.70;99.90;;;;;;5069079;28;20396;-48
2021/04/13 07:53:49;;;;;;;12.85;5.78;;;7.20;99.90;;;;;;5110858;28;20019;-50
2021/04/13 07:56:39;;;;;;;9.88;5.20;;;6.80;99.90;;;;;;5084321;28;20031;-50
2021/04/13 07:59:28;;;;;;;10.68;4.45;;;7.10;99.90;;;;;;5085333;28;20032;-51
2021/04/13 08:01:55;;;;;;;16.33;5.10;;;7.80;99.90;;;;;;5075613;28;20024;-50
2021/04/13 08:04:26;;;;;;;7.30;4.22;;;8.70;99.90;;;;;;5088722;28;20024;-48
2021/04/13 08:06:59;;;;;;;8.43;4.07;;;9.50;99.90;;;;;;5086415;28;20046;-48
2021/04/13 08:09:39;;;;;;;11.90;4.07;;;9.30;99.90;;;;;;5087204;28;20041;-50
2021/04/13 08:12:13;;;;;;;9.90;4.33;;;9.80;99.50;;;;;;5081550;28;20012;-48
2021/04/13 08:14:45;;;;;;;9.95;3.65;;;10.00;99.90;;;;;;5087262;28;20027;-49
2021/04/13 08:17:18;;;;;;;7.55;3.40;;;10.50;97.10;;;;;;5065255;28;20023;-50
2021/04/13 08:19:56;;;;;;;7.45;3.67;;;10.90;95.40;;;;;;5083687;28;20019;-48
2021/04/13 08:22:21;;;;;;;9.82;3.63;;;11.10;91.80;;;;;;5086772;28;20081;-48
2021/04/13 08:24:58;;;;;;;10.07;3.50;;;11.50;91.90;;;;;;5084429;28;20452;-49
2021/04/13 08:27:24;;;;;;;5.00;2.55;;;12.10;87.40;;;;;;5078978;28;20095;-48
2021/04/13 08:29:55;;;;;;;10.60;3.20;;;13.20;82.60;;;;;;5088729;28;20024;-48
2021/04/13 08:32:50;;;;;;;10.80;3.38;;;14.10;74.90;;;;;;5083997;28;20028;-49
2021/04/13 08:35:30;;;;;;;10.00;2.85;;;14.30;71.00;;;;;;5087948;28;20043;-51
2021/04/13 08:38:16;;;;;;;6.97;3.07;;;14.80;69.20;;;;;;5089471;28;20028;-48
2021/04/13 08:40:48;;;;;;;7.70;3.30;;;15.60;64.60;;;;;;5089793;28;20168;-47
2021/04/13 08:43:22;;;;;;;9.55;3.10;;;15.30;62.10;;;;;;5090169;28;20507;-48
2021/04/13 08:46:04;;;;;;;5.97;2.38;;;15.50;59.40;;;;;;5089929;28;20036;-48
2021/04/13 08:48:37;;;;;;;7.10;2.75;;;14.20;64.40;;;;;;5079900;28;20032;-48
2021/04/13 08:51:12;;;;;;;5.13;2.83;;;13.30;65.10;;;;;;5089492;28;20020;-50
2021/04/13 08:53:47;;;;;;;9.20;2.60;;;12.10;69.70;;;;;;5096611;28;20016;-49
2021/04/13 08:56:26;;;;;;;5.22;2.47;;;11.60;75.20;;;;;;5084212;28;20509;-49
2021/04/13 08:58:56;;;;;;;7.20;2.45;;;11.30;75.10;;;;;;5065323;28;20577;-47
2021/04/13 09:01:35;;;;;;;6.93;3.03;;;10.90;77.60;;;;;;5090941;28;20020;-50
2021/04/13 09:04:04;;;;;;;9.57;2.92;;;10.40;81.10;;;;;;5088186;28;20024;-48
2021/04/13 09:06:49;;;;;;;7.82;2.38;;;10.80;85.80;;;;;;5088511;28;20034;-49
2021/04/13 09:10:03;;;;;;;8.48;2.83;;;12.40;75.00;;;;;;5070205;28;20432;-51
2021/04/13 09:12:37;;;;;;;11.38;2.38;;;12.60;68.90;;;;;;5076835;28;20129;-48
2021/04/13 09:15:23;;;;;;;9.60;3.30;;;11.90;72.10;;;;;;5088368;28;20024;-48
2021/04/13 09:17:56;;;;;;;7.65;2.70;;;11.80;72.80;;;;;;5087331;28;20019;-46
2021/04/13 09:20:34;;;;;;;13.07;2.95;;;12.40;71.00;;;;;;5092982;28;20374;-48
2021/04/13 09:23:12;;;;;;;10.23;2.63;;;12.10;70.90;;;;;;5086346;28;20235;-49
2021/04/13 09:25:49;;;;;;;9.60;2.70;;;11.50;71.70;;;;;;5080657;28;20180;-48
2021/04/13 09:28:19;;;;;;;11.75;2.58;;;11.30;75.50;;;;;;5082595;28;20252;-48
2021/04/13 09:30:47;;;;;;;7.10;2.60;;;11.30;75.30;;;;;;5081493;28;20440;-48
2021/04/13 09:33:19;;;;;;;8.00;2.38;;;11.00;70.00;;;;;;5084906;28;20105;-49
2021/04/13 09:35:51;;;;;;;8.48;2.75;;;11.70;70.70;;;;;;5078969;28;20089;-48
2021/04/13 09:38:44;;;;;;;10.18;2.33;;;11.30;69.50;;;;;;5066050;28;20024;-48
2021/04/13 09:41:27;;;;;;;9.25;2.10;;;10.80;72.00;;;;;;5092474;28;20081;-48
2021/04/13 09:44:26;;;;;;;11.43;2.50;;;12.60;71.80;;;;;;5093203;28;20155;-53
2021/04/13 09:47:09;;;;;;;10.45;2.88;;;13.40;65.00;;;;;;5072970;28;20029;-50
2021/04/13 09:49:55;;;;;;;9.40;2.58;;;14.10;64.50;;;;;;5068036;28;20043;-50
2021/04/13 09:52:51;;;;;;;6.72;2.20;;;15.50;62.90;;;;;;5047744;28;20041;-51
2021/04/13 09:55:31;;;;;;;7.72;1.90;;;17.60;58.10;;;;;;5074568;28;20028;-50
2021/04/13 09:58:39;;;;;;;7.13;1.92;;;18.00;51.70;;;;;;5087818;28;20032;-48
2021/04/13 10:01:34;;;;;;;6.70;2.05;;;17.30;51.40;;;;;;5088685;28;20024;-51
2021/04/13 10:04:30;;;;;;;7.72;2.28;;;16.90;54.30;;;;;;5088426;28;20024;-49
2021/04/13 10:07:17;;;;;;;5.07;2.10;;;18.20;50.10;;;;;;5104486;28;20035;-50
2021/04/13 10:09:45;;;;;;;4.70;1.67;;;19.20;46.80;;;;;;5108657;28;20015;-51
2021/04/13 10:12:43;;;;;;;5.40;2.00;;;18.80;46.40;;;;;;5108751;28;20530;-49
2021/04/13 10:15:33;;;;;;;13.40;2.58;;;17.40;48.50;;;;;;5097848;28;20020;-50
2021/04/13 10:18:20;;;;;;;9.68;2.05;;;15.90;48.70;;;;;;5085915;28;20059;-47
2021/04/13 10:20:52;;;;;;;9.00;1.98;;;14.30;52.20;;;;;;5088318;28;20020;-48
2021/04/13 10:24:02;;;;;;;5.65;2.20;;;14.20;56.10;;;;;;5087800;28;20073;-48
2021/04/13 10:26:48;;;;;;;5.97;2.15;;;16.00;51.40;;;;;;5086798;28;20226;-51
2021/04/13 10:29:51;;;;;;;8.15;2.03;;;17.30;49.40;;;;;;5087320;28;20024;-48
2021/04/13 10:32:29;;;;;;;9.45;2.58;;;17.70;47.40;;;;;;5067950;28;20091;-50
2021/04/13 10:35:17;;;;;;;6.13;2.05;;;17.20;47.20;;;;;;5083319;28;20044;-48
2021/04/13 10:38:25;;;;;;;3.90;1.63;;;16.50;47.40;;;;;;5088587;28;20555;-50
2021/04/13 10:40:54;;;;;;;7.18;1.85;;;17.80;48.70;;;;;;5089943;28;20209;-49
2021/04/13 10:43:41;;;;;;;5.10;1.95;;;18.70;45.30;;;;;;5079191;28;20023;-50
2021/04/13 10:46:32;;;;;;;4.68;2.17;;;19.00;46.70;;;;;;5077942;28;20444;-51
2021/04/13 10:49:32;;;;;;;6.68;2.25;;;20.20;44.30;;;;;;5088043;28;20232;-51
2021/04/13 10:52:34;;;;;;;6.85;2.40;;;20.80;41.60;;;;;;5088267;28;20024;-51
2021/04/13 10:55:09;;;;;;;8.13;2.47;;;20.90;41.00;;;;;;5082955;28;20497;-50
2021/04/13 10:58:00;;;;;;;7.93;2.45;;;21.00;41.60;;;;;;5079187;28;20079;-50
2021/04/13 11:01:12;;;;;;;9.65;1.83;;;20.90;39.00;;;;;;5087527;28;20012;-51
2021/04/13 11:04:25;;;;;;;6.57;2.40;;;19.30;42.20;;;;;;5079506;28;20082;-47
2021/04/13 11:07:22;;;;;;;4.68;1.85;;;17.50;45.00;;;;;;5084224;28;20482;-49
2021/04/13 11:10:02;;;;;;;7.03;2.08;;;15.70;47.10;;;;;;5087152;28;20141;-50
2021/04/13 11:12:45;;;;;;;4.05;1.65;;;15.60;47.60;;;;;;5087402;28;20166;-49
2021/04/13 11:15:48;;;;;;;4.95;1.60;;;15.40;50.10;;;;;;5087271;28;20085;-50
2021/04/13 11:18:39;;;;;;;8.80;2.42;;;16.00;52.00;;;;;;5066659;28;20064;-48
2021/04/13 11:21:22;;;;;;;10.95;2.15;;;16.70;48.70;;;;;;5068013;28;20090;-48
2021/04/13 11:23:56;;;;;;;6.03;2.10;;;16.40;46.40;;;;;;5075860;28;20031;-50
2021/04/13 11:26:49;;;;;;;4.05;1.85;;;15.90;49.80;;;;;;5085422;28;20024;-50
2021/04/13 11:29:37;;;;;;;6.10;2.65;;;15.40;50.30;;;;;;5085357;28;20493;-48
2021/04/13 11:32:40;;;;;;;7.85;1.55;;;14.00;50.20;;;;;;5086000;28;20032;-48
2021/04/13 11:35:34;;;;;;;4.70;1.60;;;13.10;52.20;;;;;;5084831;28;20035;-48
2021/04/13 11:38:02;;;;;;;4.60;1.52;;;12.20;56.90;;;;;;5085659;28;20028;-50
2021/04/13 11:40:55;;;;;;;7.97;1.60;;;11.50;57.00;;;;;;5090626;28;20084;-48
2021/04/13 11:43:25;;;;;;;5.35;2.17;;;11.20;57.80;;;;;;5072688;28;20036;-48
2021/04/13 11:46:08;;;;;;;7.57;1.90;;;11.00;60.40;;;;;;5089200;28;20461;-49
2021/04/13 11:48:46;;;;;;;8.85;2.20;;;10.60;62.20;;;;;;5090312;28;20051;-49
2021/04/13 11:51:21;;;;;;;6.57;1.95;;;10.50;65.10;;;;;;5072299;28;20028;-48
2021/04/13 11:53:50;;;;;;;6.22;1.85;;;10.20;66.80;;;;;;5090315;28;20574;-48
2021/04/13 11:56:21;;;;;;;4.60;1.70;;;10.00;69.50;;;;;;5087768;28;20111;-47
2021/04/13 11:59:20;;;;;;;7.85;2.05;;;10.10;68.50;;;;;;5090525;28;20046;-48
2021/04/13 12:01:57;;;;;;;9.15;2.15;;;11.20;65.70;;;;;;5071763;28;20508;-48
2021/04/13 12:04:41;;;;;;;6.32;1.75;;;12.90;62.90;;;;;;5086638;28;20041;-48
2021/04/13 12:07:09;;;;;;;4.07;1.60;;;13.60;58.80;;;;;;5090058;28;20032;-48
2021/04/13 12:10:02;;;;;;;5.53;1.60;;;15.20;55.60;;;;;;5089757;28;20477;-49
2021/04/13 12:12:31;;;;;;;5.22;2.05;;;15.40;55.90;;;;;;5089897;28;20024;-48
2021/04/13 12:15:19;;;;;;;5.65;1.75;;;15.30;53.60;;;;;;5088708;28;20489;-48
2021/04/13 12:17:46;;;;;;;6.32;1.63;;;15.40;56.20;;;;;;5082222;28;20543;-48
2021/04/13 12:20:29;;;;;;;5.18;1.88;;;15.60;54.30;;;;;;5089985;28;20024;-49
2021/04/13 12:23:04;;;;;;;3.67;1.40;;;15.70;54.00;;;;;;5090885;28;20064;-48
2021/04/13 12:25:39;;;;;;;3.72;1.60;;;15.40;53.90;;;;;;5089936;28;20488;-47
2021/04/13 12:28:15;;;;;;;5.40;1.40;;;14.60;57.30;;;;;;5089394;28;20115;-47
2021/04/13 12:30:43;;;;;;;4.78;1.20;;;14.10;57.20;;;;;;5090240;28;20032;-47
2021/04/13 12:33:24;;;;;;;7.75;1.65;;;14.30;59.40;;;;;;5072172;28;20397;-51
2021/04/13 12:35:49;;;;;;;4.20;1.35;;;13.90;59.90;;;;;;5087017;28;20042;-51
2021/04/13 12:38:46;;;;;;;3.65;1.40;;;13.40;61.00;;;;;;5074438;28;20025;-48
2021/04/13 12:41:34;;;;;;;4.75;1.10;;;13.00;61.00;;;;;;5087432;28;20020;-51
2021/04/13 12:44:22;;;;;;;3.33;1.35;;;12.20;62.40;;;;;;5089086;28;20024;-47
2021/04/13 12:46:49;;;;;;;3.10;1.00;;;12.50;65.20;;;;;;5073490;28;20032;-47
2021/04/13 12:49:15;;;;;;;1.85;1.00;;;12.80;61.30;;;;;;5079466;28;20104;-48
2021/04/13 12:51:54;;;;;;;2.95;1.05;;;13.10;63.00;;;;;;5088892;28;20142;-47
2021/04/13 12:54:33;;;;;;;3.50;0.95;;;13.30;60.10;;;;;;5083851;28;20024;-50
2021/04/13 12:57:03;;;;;;;4.55;1.42;;;13.10;61.00;;;;;;5084125;28;20020;-51
2021/04/13 12:59:30;;;;;;;2.47;0.98;;;13.40;61.20;;;;;;5070797;28;20474;-48
2021/04/13 13:01:56;;;;;;;3.97;1.20;;;13.50;58.80;;;;;;5071279;28;20032;-51
2021/04/13 13:04:43;;;;;;;4.25;1.73;;;13.80;58.50;;;;;;5087467;28;20032;-48
2021/04/13 13:07:20;;;;;;;3.92;1.35;;;14.00;60.70;;;;;;5085622;28;20493;-48
2021/04/13 13:09:46;;;;;;;3.70;1.20;;;13.40;58.30;;;;;;5082632;28;20020;-47
2021/04/13 13:12:33;;;;;;;3.38;0.98;;;13.50;59.80;;;;;;5084460;28;20028;-48
2021/04/13 13:15:14;;;;;;;5.15;1.80;;;13.20;59.00;;;;;;5083035;28;20033;-50
2021/04/13 13:17:44;;;;;;;5.60;1.60;;;13.60;59.60;;;;;;5080707;28;20429;-49
2021/04/13 13:20:31;;;;;;;9.35;2.00;;;13.30;60.60;;;;;;5089292;28;20058;-48
2021/04/13 13:22:57;;;;;;;5.55;2.15;;;12.20;66.80;;;;;;5085831;28;20024;-48
2021/04/13 13:25:34;;;;;;;5.80;1.88;;;11.00;73.70;;;;;;5065798;28;20054;-49
2021/04/13 13:28:23;;;;;;;5.50;2.35;;;10.10;90.80;;;;;;5084301;28;20481;-47
2021/04/13 13:30:51;;;;;;;5.97;2.72;;;9.10;99.90;;;;;;5088629;28;20114;-47
2021/04/13 13:33:20;;;;;;;7.28;2.30;;;8.70;99.90;;;;;;5087900;28;20497;-45
2021/04/13 13:35:47;;;;;;;5.97;2.45;;;8.20;99.90;;;;;;5085086;28;20028;-45